Time;durP1;ratioP1;P1;durP2;ratioP2;P2;SDS_P1;SDS_P2;PMS_P1;PMS_P2;Temp;Humidity;BMP_temperature;BMP_pressure;BME280_temperature;BME280_humidity;BME280_pressure;Samples;Min_cycle;Max_cycle;Signal;HPM_P1;HPM_P2
2021/08/09 00:01:08;;;;;;;4.43;1.73;;;15.40;99.90;;;;;;5009173;28;20232;-78
2021/08/09 00:03:34;;;;;;;5.73;2.10;;;15.30;99.90;;;;;;4992770;28;20197;-78
2021/08/09 00:05:59;;;;;;;5.80;2.17;;;15.30;99.90;;;;;;5009171;28;20607;-78
2021/08/09 00:08:25;;;;;;;4.50;1.83;;;15.30;99.90;;;;;;4992397;28;20185;-78
2021/08/09 00:10:50;;;;;;;5.20;2.03;;;15.30;99.90;;;;;;5007769;28;20243;-78
2021/08/09 00:13:16;;;;;;;4.27;2.30;;;15.30;99.90;;;;;;4991891;28;20177;-78
2021/08/09 00:15:41;;;;;;;5.43;2.40;;;15.30;99.90;;;;;;5008648;28;20246;-78
2021/08/09 00:18:07;;;;;;;7.67;2.40;;;15.30;99.90;;;;;;5007976;28;20193;-78
2021/08/09 00:20:33;;;;;;;3.10;2.13;;;15.30;99.90;;;;;;4991655;28;20208;-78
2021/08/09 00:22:58;;;;;;;3.83;2.00;;;15.20;99.90;;;;;;5008106;28;20212;-78
2021/08/09 00:25:24;;;;;;;5.53;2.50;;;15.20;99.90;;;;;;4992454;28;20262;-78
2021/08/09 00:27:49;;;;;;;5.60;2.37;;;15.20;99.90;;;;;;4992035;28;20177;-78
2021/08/09 00:30:15;;;;;;;4.27;2.27;;;15.10;99.90;;;;;;4991782;28;20195;-78
2021/08/09 00:32:40;;;;;;;3.90;2.60;;;15.10;99.90;;;;;;5008344;28;20212;-78
2021/08/09 00:35:06;;;;;;;6.47;2.53;;;15.20;99.90;;;;;;4991779;28;20268;-78
2021/08/09 00:37:32;;;;;;;4.63;2.20;;;15.10;99.90;;;;;;5008008;28;20180;-78
2021/08/09 00:39:58;;;;;;;3.87;2.13;;;15.10;99.90;;;;;;4992269;28;20675;-78
2021/08/09 00:42:23;;;;;;;4.00;2.40;;;15.10;99.90;;;;;;4975107;28;20189;-78
2021/08/09 00:44:49;;;;;;;5.53;2.33;;;15.00;99.90;;;;;;4990973;28;20216;-78
2021/08/09 00:47:14;;;;;;;5.70;2.50;;;15.00;99.90;;;;;;5007860;28;20180;-78
2021/08/09 00:49:40;;;;;;;5.43;2.53;;;15.00;99.90;;;;;;4991571;28;20236;-78
2021/08/09 00:52:06;;;;;;;6.23;2.50;;;15.00;99.90;;;;;;5006593;28;20719;-78
2021/08/09 00:54:32;;;;;;;5.27;2.40;;;15.00;99.90;;;;;;4990302;28;20637;-78
2021/08/09 00:56:57;;;;;;;6.13;2.30;;;15.00;99.90;;;;;;5006231;28;20239;-78
2021/08/09 00:59:23;;;;;;;4.07;2.50;;;15.00;99.90;;;;;;4990191;28;20180;-79
2021/08/09 01:01:49;;;;;;;3.60;2.27;;;15.00;99.90;;;;;;5010131;28;20207;-78
2021/08/09 01:04:14;;;;;;;5.50;2.33;;;15.00;99.90;;;;;;4993420;28;20211;-78
2021/08/09 01:06:40;;;;;;;5.17;2.10;;;14.90;99.90;;;;;;5010532;28;20181;-78
2021/08/09 01:09:08;;;;;;;4.03;2.30;;;15.00;99.90;;;;;;5010650;28;20185;-78
2021/08/09 01:12:08;;;;;;;4.60;2.30;;;14.90;99.90;;;;;;4979502;28;20218;-78
2021/08/09 01:14:52;;;;;;;4.30;2.40;;;14.90;99.90;;;;;;4985681;28;20231;-78
2021/08/09 01:17:19;;;;;;;4.63;1.90;;;14.90;99.90;;;;;;4979753;28;20177;-78
2021/08/09 01:19:52;;;;;;;7.90;2.40;;;14.80;99.90;;;;;;5012646;28;20205;-78
2021/08/09 01:22:48;;;;;;;4.33;2.27;;;14.80;99.90;;;;;;4995711;28;20204;-78
2021/08/09 01:25:58;;;;;;;4.80;2.40;;;14.80;99.90;;;;;;4995508;28;20208;-78
2021/08/09 01:28:30;;;;;;;5.50;2.40;;;14.80;99.90;;;;;;5017451;28;20242;-78
2021/08/09 01:30:56;;;;;;;5.03;2.20;;;14.80;99.90;;;;;;4982240;28;20752;-78
2021/08/09 01:33:22;;;;;;;5.03;2.63;;;14.80;99.90;;;;;;4994956;28;20220;-78
2021/08/09 01:35:48;;;;;;;3.97;1.87;;;14.80;99.90;;;;;;4995136;28;20250;-78
2021/08/09 01:38:14;;;;;;;5.60;2.77;;;14.80;99.90;;;;;;5012963;28;20188;-78
2021/08/09 01:40:40;;;;;;;6.50;2.40;;;14.90;99.90;;;;;;4994478;28;20315;-78
2021/08/09 01:43:05;;;;;;;5.03;2.33;;;14.80;99.90;;;;;;5011565;28;20292;-78
2021/08/09 01:45:32;;;;;;;3.03;1.97;;;14.80;99.90;;;;;;4994723;28;20213;-78
2021/08/09 01:47:57;;;;;;;5.97;2.50;;;14.80;99.90;;;;;;4994539;28;20181;-78
2021/08/09 01:50:23;;;;;;;3.90;2.10;;;14.80;99.90;;;;;;5009969;28;20276;-78
2021/08/09 01:52:49;;;;;;;5.63;2.20;;;14.80;99.90;;;;;;4993984;28;20181;-78
2021/08/09 01:55:15;;;;;;;9.57;2.67;;;14.90;99.90;;;;;;5010652;28;20188;-78
2021/08/09 01:57:41;;;;;;;3.90;2.17;;;14.80;99.90;;;;;;4994938;28;20192;-78
2021/08/09 02:00:08;;;;;;;5.37;2.40;;;14.80;99.90;;;;;;5010378;28;20189;-78
2021/08/09 02:02:34;;;;;;;7.70;2.47;;;14.80;99.90;;;;;;4994030;28;20685;-78
2021/08/09 02:05:08;;;;;;;3.83;2.50;;;14.90;99.90;;;;;;5009961;28;20542;-78
2021/08/09 02:07:38;;;;;;;5.23;2.50;;;14.80;99.90;;;;;;4994197;28;20183;-78
2021/08/09 02:10:08;;;;;;;4.70;2.40;;;14.80;99.90;;;;;;5010013;28;20199;-78
2021/08/09 02:13:07;;;;;;;5.10;2.63;;;14.90;99.90;;;;;;4995005;28;20181;-78
2021/08/09 02:15:42;;;;;;;4.53;2.30;;;14.80;99.90;;;;;;4978922;28;20180;-78
2021/08/09 02:18:40;;;;;;;4.80;2.37;;;14.80;99.90;;;;;;4993389;28;20264;-78
2021/08/09 02:21:08;;;;;;;6.13;2.30;;;14.80;99.90;;;;;;4993754;28;20689;-78
2021/08/09 02:23:46;;;;;;;6.13;2.50;;;14.80;99.90;;;;;;5009976;28;20177;-78
2021/08/09 02:26:12;;;;;;;4.57;2.20;;;14.80;99.90;;;;;;4993757;28;20173;-78
2021/08/09 02:28:41;;;;;;;4.27;2.37;;;14.80;99.90;;;;;;5009943;28;20208;-78
2021/08/09 02:31:07;;;;;;;8.73;2.77;;;14.80;99.90;;;;;;5009010;28;20197;-78
2021/08/09 02:33:32;;;;;;;4.60;2.30;;;14.70;99.90;;;;;;4993433;28;20209;-78
2021/08/09 02:35:58;;;;;;;4.60;2.43;;;14.80;99.90;;;;;;5010123;28;20204;-78
2021/08/09 02:38:24;;;;;;;4.47;2.30;;;14.70;99.90;;;;;;5009638;28;20173;-78
2021/08/09 02:40:49;;;;;;;3.60;2.50;;;14.70;99.90;;;;;;4992912;28;20271;-78
2021/08/09 02:43:15;;;;;;;7.23;2.60;;;14.70;99.90;;;;;;4993005;28;20196;-78
2021/08/09 02:45:41;;;;;;;3.27;2.20;;;14.70;99.90;;;;;;5009026;28;20232;-78
2021/08/09 02:48:06;;;;;;;3.50;2.30;;;14.70;99.90;;;;;;5009640;28;20185;-78
2021/08/09 02:50:32;;;;;;;5.37;2.33;;;14.80;99.90;;;;;;4992788;28;20207;-78
2021/08/09 02:52:58;;;;;;;5.50;2.70;;;14.70;99.90;;;;;;4992433;28;20209;-78
2021/08/09 02:55:23;;;;;;;6.40;2.13;;;14.80;99.90;;;;;;5008855;28;20197;-79
2021/08/09 02:57:49;;;;;;;4.23;2.23;;;14.80;99.90;;;;;;4992289;28;20185;-78
2021/08/09 03:00:15;;;;;;;4.77;2.00;;;14.80;99.90;;;;;;5009611;28;20185;-78
2021/08/09 03:02:42;;;;;;;5.03;2.30;;;14.70;99.90;;;;;;4993445;28;20212;-78
2021/08/09 03:05:08;;;;;;;6.53;2.40;;;14.80;99.90;;;;;;4992702;28;20232;-78
2021/08/09 03:07:35;;;;;;;2.83;2.30;;;14.70;99.90;;;;;;5009634;28;20661;-78
2021/08/09 03:10:01;;;;;;;5.73;2.20;;;14.70;99.90;;;;;;4992423;28;20191;-78
2021/08/09 03:12:26;;;;;;;3.23;2.07;;;14.70;99.90;;;;;;4992792;28;20216;-78
2021/08/09 03:14:52;;;;;;;5.93;2.37;;;14.70;99.90;;;;;;5009528;28;20199;-78
2021/08/09 03:17:18;;;;;;;4.17;2.20;;;14.80;99.90;;;;;;4992902;28;20217;-78
2021/08/09 03:19:43;;;;;;;5.43;2.50;;;14.80;99.90;;;;;;4992943;28;20197;-78
2021/08/09 03:22:10;;;;;;;3.87;1.97;;;14.70;99.90;;;;;;5009299;28;20205;-78
2021/08/09 03:24:36;;;;;;;3.87;2.10;;;14.80;99.90;;;;;;4992285;28;20213;-78
2021/08/09 03:27:01;;;;;;;6.20;2.23;;;14.70;99.90;;;;;;5008987;28;20177;-78
2021/08/09 03:29:27;;;;;;;6.13;2.30;;;14.80;99.90;;;;;;4992034;28;20228;-78
2021/08/09 03:31:52;;;;;;;4.93;2.50;;;14.80;99.90;;;;;;5008573;28;20207;-78
2021/08/09 03:34:18;;;;;;;4.17;2.23;;;14.80;99.90;;;;;;4995986;28;20439;-78
2021/08/09 03:36:46;;;;;;;4.73;2.40;;;14.80;99.90;;;;;;5012613;28;20260;-78
2021/08/09 03:39:12;;;;;;;5.10;2.50;;;14.80;99.90;;;;;;5012421;28;20184;-78
2021/08/09 03:41:38;;;;;;;7.30;2.40;;;14.80;99.90;;;;;;5012765;28;20196;-78
2021/08/09 03:44:04;;;;;;;4.80;2.57;;;14.80;99.90;;;;;;5011927;28;20208;-78
2021/08/09 03:46:29;;;;;;;4.43;2.30;;;14.80;99.90;;;;;;5011424;28;20207;-78
2021/08/09 03:48:55;;;;;;;6.37;2.30;;;14.80;99.90;;;;;;5012874;28;20206;-78
2021/08/09 03:51:21;;;;;;;4.47;2.60;;;14.80;99.90;;;;;;5005285;28;20204;-78
2021/08/09 03:53:46;;;;;;;7.83;1.97;;;14.80;99.90;;;;;;4992485;28;20196;-78
2021/08/09 03:56:12;;;;;;;5.03;2.13;;;14.80;99.90;;;;;;4986652;28;20173;-78
2021/08/09 03:58:37;;;;;;;3.93;2.40;;;14.80;99.90;;;;;;4988045;28;20168;-78
2021/08/09 04:01:04;;;;;;;6.43;2.70;;;14.80;99.90;;;;;;4996986;28;20672;-78
2021/08/09 04:03:30;;;;;;;5.60;2.20;;;14.80;99.90;;;;;;4981656;28;20681;-78
2021/08/09 04:05:55;;;;;;;4.60;2.37;;;14.80;99.90;;;;;;4976035;28;20244;-78
2021/08/09 04:08:21;;;;;;;8.70;2.70;;;14.80;99.90;;;;;;4976850;28;20180;-78
2021/08/09 04:10:46;;;;;;;5.07;2.70;;;14.90;99.90;;;;;;4975982;28;20216;-78
2021/08/09 04:13:12;;;;;;;5.97;2.30;;;14.80;99.90;;;;;;4976204;28;20239;-78
2021/08/09 04:15:38;;;;;;;6.40;2.23;;;14.80;99.90;;;;;;4976431;28;20284;-78
2021/08/09 04:18:04;;;;;;;5.33;2.50;;;14.80;99.90;;;;;;4976297;28;20189;-78
2021/08/09 04:20:29;;;;;;;4.20;2.30;;;14.90;99.90;;;;;;4976848;28;20227;-78
2021/08/09 04:22:55;;;;;;;9.10;2.60;;;14.90;99.90;;;;;;4985749;28;20270;-78
2021/08/09 04:25:21;;;;;;;6.80;2.30;;;14.90;99.90;;;;;;5000878;28;20234;-80
2021/08/09 04:27:47;;;;;;;3.80;2.23;;;14.80;99.90;;;;;;5002326;28;20180;-80
2021/08/09 04:30:12;;;;;;;5.60;2.43;;;14.80;99.90;;;;;;5001679;28;20185;-80
2021/08/09 04:32:41;;;;;;;4.67;2.47;;;14.80;99.90;;;;;;5001700;28;20173;-78
2021/08/09 04:35:08;;;;;;;5.67;2.63;;;14.80;99.90;;;;;;4999393;28;20236;-81
2021/08/09 04:37:34;;;;;;;6.33;2.60;;;14.80;99.90;;;;;;4999543;28;20195;-80
2021/08/09 04:39:59;;;;;;;4.73;2.20;;;14.80;99.90;;;;;;4999236;28;20180;-79
2021/08/09 04:42:25;;;;;;;6.83;2.63;;;14.80;99.90;;;;;;5000761;28;20184;-80
2021/08/09 04:44:50;;;;;;;5.00;2.30;;;14.80;99.90;;;;;;4998458;28;20299;-80
2021/08/09 04:47:16;;;;;;;5.50;2.47;;;14.80;99.90;;;;;;4986603;28;20303;-80
2021/08/09 04:49:42;;;;;;;6.23;2.30;;;14.80;99.90;;;;;;4986440;28;20204;-80
2021/08/09 04:52:08;;;;;;;5.00;2.33;;;14.90;99.90;;;;;;4987442;28;20207;-79
2021/08/09 04:54:34;;;;;;;4.67;1.90;;;14.90;99.90;;;;;;4991240;28;20185;-81
2021/08/09 04:56:59;;;;;;;6.87;2.50;;;14.80;99.90;;;;;;4983769;28;20227;-80
2021/08/09 04:59:25;;;;;;;6.23;2.53;;;14.80;99.90;;;;;;4988954;28;20196;-80
2021/08/09 05:01:51;;;;;;;4.57;2.20;;;14.90;99.90;;;;;;4991760;28;20200;-81
2021/08/09 05:04:16;;;;;;;5.43;2.30;;;14.90;99.90;;;;;;4995262;28;20249;-83
2021/08/09 05:06:42;;;;;;;7.23;2.80;;;14.90;99.90;;;;;;4987627;28;20209;-80
2021/08/09 05:09:07;;;;;;;4.70;2.40;;;14.90;99.90;;;;;;4984881;28;20180;-82
2021/08/09 05:11:33;;;;;;;4.30;2.30;;;14.90;99.90;;;;;;4984397;28;20213;-82
2021/08/09 05:13:59;;;;;;;6.87;2.80;;;15.00;99.90;;;;;;4999697;28;20240;-83
2021/08/09 05:16:25;;;;;;;7.83;2.47;;;15.00;99.90;;;;;;4995246;28;20180;-82
2021/08/09 05:18:52;;;;;;;5.43;2.30;;;15.10;99.90;;;;;;4995413;28;20672;-83
2021/08/09 05:21:18;;;;;;;4.73;2.50;;;15.00;99.90;;;;;;5000983;28;20204;-80
2021/08/09 05:23:45;;;;;;;5.73;2.33;;;15.00;99.90;;;;;;5000697;28;20179;-81
2021/08/09 05:26:11;;;;;;;9.33;2.37;;;15.00;99.90;;;;;;5001422;28;20567;-80
2021/08/09 05:28:37;;;;;;;5.90;2.50;;;15.00;99.90;;;;;;5005629;28;20204;-84
2021/08/09 05:31:03;;;;;;;5.50;2.63;;;15.00;99.90;;;;;;5005961;28;20201;-82
2021/08/09 05:33:29;;;;;;;6.70;2.57;;;15.00;99.90;;;;;;5006538;28;20192;-82
2021/08/09 05:35:55;;;;;;;4.03;2.07;;;15.00;99.90;;;;;;5007489;28;20187;-82
2021/08/09 05:38:20;;;;;;;5.77;2.80;;;15.00;99.90;;;;;;5007771;28;20252;-85
2021/08/09 05:40:46;;;;;;;5.53;2.63;;;15.10;99.90;;;;;;5008856;28;20200;-85
2021/08/09 05:43:11;;;;;;;4.73;2.17;;;15.10;99.90;;;;;;5003967;28;20184;-84
2021/08/09 05:45:37;;;;;;;7.17;2.40;;;15.10;99.90;;;;;;4995167;28;20209;-83
2021/08/09 05:48:03;;;;;;;4.60;2.50;;;15.10;99.90;;;;;;4987586;28;20176;-83
2021/08/09 05:50:28;;;;;;;5.57;2.50;;;15.20;99.90;;;;;;5008145;28;20207;-83
2021/08/09 05:52:54;;;;;;;6.67;2.63;;;15.30;99.90;;;;;;5012322;28;20651;-84
2021/08/09 05:55:23;;;;;;;4.70;2.40;;;15.40;99.90;;;;;;4997285;28;20249;-82
2021/08/09 05:57:49;;;;;;;8.03;2.80;;;15.80;99.90;;;;;;4997866;28;20184;-82
2021/08/09 06:00:15;;;;;;;6.30;2.60;;;16.20;99.90;;;;;;5003753;28;20274;-83
2021/08/09 06:02:42;;;;;;;5.57;2.27;;;16.70;99.90;;;;;;5003947;28;20230;-83
2021/08/09 06:05:08;;;;;;;5.77;2.63;;;17.20;99.90;;;;;;5003763;28;20203;-83
2021/08/09 06:07:33;;;;;;;5.87;2.20;;;17.40;99.90;;;;;;5003885;28;20179;-83
2021/08/09 06:09:59;;;;;;;6.13;2.30;;;17.50;99.90;;;;;;5004328;28;20183;-83
2021/08/09 06:12:24;;;;;;;6.70;2.30;;;17.40;99.90;;;;;;5003488;28;20176;-78
2021/08/09 06:14:50;;;;;;;5.30;2.20;;;17.40;99.90;;;;;;5002666;28;20567;-82
2021/08/09 06:17:16;;;;;;;7.10;2.63;;;17.30;99.90;;;;;;5005164;28;20891;-79
2021/08/09 06:19:41;;;;;;;3.93;2.30;;;17.20;99.90;;;;;;5003338;28;20665;-80
2021/08/09 06:22:07;;;;;;;6.50;2.47;;;17.20;99.90;;;;;;4999653;28;20768;-78
2021/08/09 06:24:32;;;;;;;5.83;2.17;;;17.00;99.90;;;;;;4998547;28;20713;-81
2021/08/09 06:26:58;;;;;;;7.07;3.30;;;16.90;99.90;;;;;;4999591;28;20167;-79
2021/08/09 06:29:23;;;;;;;6.53;2.40;;;16.90;99.90;;;;;;4986071;28;20267;-79
2021/08/09 06:31:49;;;;;;;6.43;2.40;;;17.00;99.90;;;;;;4981918;28;20193;-80
2021/08/09 06:34:14;;;;;;;5.97;2.47;;;17.10;99.90;;;;;;4984301;28;20267;-79
2021/08/09 06:36:40;;;;;;;5.50;2.40;;;17.20;99.90;;;;;;5002005;28;20185;-80
2021/08/09 06:39:06;;;;;;;5.10;2.20;;;17.20;99.90;;;;;;5010051;28;20185;-80
2021/08/09 06:41:32;;;;;;;6.03;2.50;;;17.30;99.90;;;;;;5000794;28;20204;-81
2021/08/09 06:43:59;;;;;;;6.97;2.50;;;17.20;99.90;;;;;;4996293;28;20227;-80
2021/08/09 06:46:25;;;;;;;9.23;2.43;;;17.20;99.90;;;;;;4989741;28;20160;-80
2021/08/09 06:48:50;;;;;;;4.43;2.27;;;17.20;99.90;;;;;;4999407;28;20200;-80
2021/08/09 06:51:16;;;;;;;5.00;2.17;;;17.10;99.90;;;;;;5003152;28;20686;-81
2021/08/09 06:53:41;;;;;;;8.80;2.47;;;17.20;99.90;;;;;;4982916;28;20638;-82
2021/08/09 06:56:07;;;;;;;6.07;2.20;;;17.20;99.90;;;;;;4991676;28;20649;-80
2021/08/09 06:58:32;;;;;;;6.37;2.30;;;17.10;99.90;;;;;;4998515;28;20184;-81
2021/08/09 07:00:58;;;;;;;7.20;2.50;;;17.20;99.90;;;;;;4976197;28;20232;-79
2021/08/09 07:03:23;;;;;;;5.37;2.17;;;17.20;99.90;;;;;;4992331;28;20275;-81
2021/08/09 07:05:49;;;;;;;7.53;2.57;;;17.10;99.90;;;;;;5007341;28;20203;-81
2021/08/09 07:08:15;;;;;;;5.70;2.27;;;17.10;99.90;;;;;;5003567;28;20230;-81
2021/08/09 07:10:41;;;;;;;5.43;2.50;;;17.00;99.90;;;;;;4994078;28;20572;-80
2021/08/09 07:13:07;;;;;;;5.87;2.10;;;17.00;99.90;;;;;;5012724;28;20175;-79
2021/08/09 07:15:32;;;;;;;6.73;2.30;;;17.00;99.90;;;;;;5002552;28;20663;-79
2021/08/09 07:17:58;;;;;;;5.93;2.17;;;16.90;99.90;;;;;;5019713;28;20222;-81
2021/08/09 07:20:24;;;;;;;5.17;2.20;;;16.90;99.90;;;;;;4995247;28;20220;-81
2021/08/09 07:22:49;;;;;;;5.77;2.27;;;16.90;99.90;;;;;;5010974;28;20191;-81
2021/08/09 07:25:15;;;;;;;6.67;2.40;;;16.80;99.90;;;;;;4992195;28;20234;-81
2021/08/09 07:27:41;;;;;;;6.47;2.40;;;16.80;99.90;;;;;;4982977;28;20210;-81
2021/08/09 07:30:09;;;;;;;6.87;2.30;;;16.80;99.90;;;;;;4982949;28;20529;-81
2021/08/09 07:32:35;;;;;;;6.73;2.40;;;16.70;99.90;;;;;;5001793;28;20234;-81
2021/08/09 07:35:00;;;;;;;4.37;2.00;;;16.70;99.90;;;;;;4990483;28;20215;-81
2021/08/09 07:37:26;;;;;;;7.23;2.20;;;16.80;99.90;;;;;;4979655;28;20288;-81
2021/08/09 07:39:51;;;;;;;5.13;2.23;;;16.70;99.90;;;;;;4997745;28;20216;-81
2021/08/09 07:42:17;;;;;;;7.63;2.30;;;16.70;99.90;;;;;;5013429;28;20204;-81
2021/08/09 07:44:43;;;;;;;5.73;2.40;;;16.70;99.90;;;;;;4999723;28;20270;-81
2021/08/09 07:47:08;;;;;;;4.87;2.37;;;16.70;99.90;;;;;;4999575;28;20180;-80
2021/08/09 07:49:34;;;;;;;6.47;2.10;;;16.60;99.90;;;;;;5000520;28;20192;-81
2021/08/09 07:51:59;;;;;;;4.57;2.70;;;16.60;99.90;;;;;;5003830;28;20562;-80
2021/08/09 07:54:25;;;;;;;4.30;2.17;;;16.60;99.90;;;;;;4997670;28;20188;-79
2021/08/09 07:56:51;;;;;;;7.90;2.50;;;16.50;99.90;;;;;;4998431;28;20203;-81
2021/08/09 07:59:17;;;;;;;4.17;2.13;;;16.50;99.90;;;;;;5011085;28;20180;-81
2021/08/09 08:01:42;;;;;;;6.50;2.60;;;16.50;99.90;;;;;;4978700;28;20208;-82
2021/08/09 08:04:08;;;;;;;6.07;2.43;;;16.40;99.90;;;;;;5009093;28;20207;-81
2021/08/09 08:06:34;;;;;;;7.23;2.50;;;16.40;99.90;;;;;;4974588;28;20181;-81
2021/08/09 08:08:59;;;;;;;4.83;2.63;;;16.50;99.90;;;;;;4999295;28;20202;-81
2021/08/09 08:11:25;;;;;;;5.50;2.33;;;16.40;99.90;;;;;;5013622;28;20216;-81
2021/08/09 08:13:50;;;;;;;6.57;2.50;;;16.30;99.90;;;;;;4993902;28;20275;-81
2021/08/09 08:16:16;;;;;;;6.90;3.00;;;16.30;99.90;;;;;;4994989;28;20275;-81
2021/08/09 08:18:41;;;;;;;5.53;2.73;;;16.30;99.90;;;;;;4992010;28;20180;-81
2021/08/09 08:21:07;;;;;;;6.60;3.20;;;16.30;99.90;;;;;;4993421;28;20750;-81
2021/08/09 08:23:32;;;;;;;6.83;2.97;;;16.30;99.90;;;;;;4994842;28;20177;-81
2021/08/09 08:25:58;;;;;;;4.80;2.90;;;16.20;99.90;;;;;;4997161;28;20208;-81
2021/08/09 08:28:23;;;;;;;6.83;3.37;;;16.30;99.90;;;;;;4979052;28;20173;-81
2021/08/09 08:30:51;;;;;;;9.63;3.40;;;16.40;99.90;;;;;;4994633;28;20215;-81
2021/08/09 08:33:17;;;;;;;7.03;3.23;;;16.40;99.90;;;;;;4994694;28;20200;-81
2021/08/09 08:35:42;;;;;;;6.77;3.00;;;16.40;99.90;;;;;;4992573;28;20196;-81
2021/08/09 08:38:08;;;;;;;5.93;2.87;;;16.50;99.90;;;;;;4994567;28;20551;-81
2021/08/09 08:40:34;;;;;;;6.30;3.07;;;16.60;99.90;;;;;;4994836;28;20244;-80
2021/08/09 08:42:59;;;;;;;5.80;2.97;;;16.80;99.90;;;;;;4994631;28;20184;-80
2021/08/09 08:45:27;;;;;;;5.53;2.90;;;17.00;99.90;;;;;;4994638;28;20230;-80
2021/08/09 08:47:52;;;;;;;5.83;2.87;;;17.30;99.90;;;;;;4993344;28;20196;-79
2021/08/09 08:50:19;;;;;;;6.13;2.73;;;17.50;99.90;;;;;;4993555;28;20229;-80
2021/08/09 08:52:47;;;;;;;3.97;2.40;;;17.70;99.90;;;;;;4993614;28;20532;-80
2021/08/09 08:55:17;;;;;;;4.10;2.43;;;17.80;99.90;;;;;;4994134;28;20558;-80
2021/08/09 08:57:42;;;;;;;6.80;2.47;;;18.00;99.90;;;;;;4994399;28;20180;-80
2021/08/09 09:00:08;;;;;;;4.90;2.30;;;18.10;99.90;;;;;;4993704;28;20659;-80
2021/08/09 09:02:35;;;;;;;4.77;2.40;;;18.10;99.90;;;;;;5010902;28;20192;-80
2021/08/09 09:05:20;;;;;;;4.83;2.20;;;18.40;99.90;;;;;;4994576;28;20239;-80
2021/08/09 09:07:50;;;;;;;3.90;1.60;;;18.80;99.90;;;;;;4993925;28;20176;-79
2021/08/09 09:10:29;;;;;;;5.07;1.90;;;19.10;99.90;;;;;;4994020;28;20220;-80
2021/08/09 09:13:14;;;;;;;4.67;1.77;;;19.40;99.90;;;;;;5012237;28;20710;-80
2021/08/09 09:16:15;;;;;;;3.87;1.87;;;19.70;99.90;;;;;;5011028;28;20180;-80
2021/08/09 09:18:48;;;;;;;4.33;1.83;;;19.80;99.90;;;;;;4995864;28;20186;-80
2021/08/09 09:21:33;;;;;;;3.77;1.50;;;19.90;99.90;;;;;;4995066;28;20286;-79
2021/08/09 09:24:19;;;;;;;3.53;1.57;;;20.10;99.90;;;;;;4997958;28;20171;-80
2021/08/09 09:26:52;;;;;;;4.47;2.00;;;20.20;99.90;;;;;;4998211;28;20177;-79
2021/08/09 09:29:18;;;;;;;3.67;1.87;;;20.40;99.90;;;;;;4997272;28;20219;-79
2021/08/09 09:31:44;;;;;;;4.57;1.40;;;20.40;99.90;;;;;;4997534;28;20196;-80
2021/08/09 09:34:12;;;;;;;5.60;2.00;;;20.30;99.90;;;;;;4998615;28;20188;-79
2021/08/09 09:36:57;;;;;;;3.77;1.70;;;20.20;99.90;;;;;;4998093;28;20183;-80
2021/08/09 09:39:39;;;;;;;3.10;1.60;;;20.10;99.90;;;;;;4997394;28;20207;-80
2021/08/09 09:42:09;;;;;;;3.20;1.80;;;20.30;99.90;;;;;;4999515;28;20205;-80
2021/08/09 09:44:36;;;;;;;4.67;1.50;;;20.40;99.90;;;;;;5003518;28;20187;-79
2021/08/09 09:47:18;;;;;;;4.83;1.70;;;20.50;99.90;;;;;;5010435;28;20260;-78
2021/08/09 09:49:43;;;;;;;4.47;1.50;;;20.60;99.90;;;;;;5027329;28;20761;-78
2021/08/09 09:52:26;;;;;;;4.63;1.63;;;20.60;99.90;;;;;;5011036;28;20251;-79
2021/08/09 09:54:52;;;;;;;3.13;1.37;;;20.60;99.90;;;;;;5010463;28;20279;-79
2021/08/09 09:57:17;;;;;;;2.53;1.53;;;20.60;99.90;;;;;;4994676;28;20176;-78
2021/08/09 09:59:43;;;;;;;5.77;1.30;;;20.70;99.90;;;;;;5009906;28;20184;-78
2021/08/09 10:02:08;;;;;;;5.40;1.77;;;20.90;99.90;;;;;;4992096;28;20207;-79
2021/08/09 10:04:34;;;;;;;4.10;1.40;;;20.90;99.90;;;;;;5008993;28;20212;-79
2021/08/09 10:07:00;;;;;;;2.10;1.23;;;21.10;99.90;;;;;;5007459;28;20169;-79
2021/08/09 10:09:25;;;;;;;4.80;1.20;;;21.30;99.90;;;;;;5009346;28;20250;-79
2021/08/09 10:11:51;;;;;;;5.07;1.60;;;21.40;99.90;;;;;;5005333;28;20270;-79
2021/08/09 10:14:16;;;;;;;5.20;1.60;;;21.50;99.90;;;;;;5008117;28;20199;-79
2021/08/09 10:16:42;;;;;;;3.27;1.27;;;21.40;99.90;;;;;;5008110;28;20180;-78
2021/08/09 10:19:07;;;;;;;4.53;1.53;;;21.20;99.90;;;;;;5009046;28;20252;-79
2021/08/09 10:21:33;;;;;;;4.43;1.77;;;21.10;99.90;;;;;;5009069;28;20200;-79
2021/08/09 10:23:59;;;;;;;4.93;1.47;;;21.10;99.90;;;;;;5003512;28;20185;-78
2021/08/09 10:26:30;;;;;;;3.43;1.20;;;21.10;99.90;;;;;;5003682;28;20197;-78
2021/08/09 10:28:55;;;;;;;4.50;1.43;;;21.20;99.90;;;;;;5022206;28;20199;-79
2021/08/09 10:31:22;;;;;;;4.43;1.50;;;21.20;99.90;;;;;;5014476;28;20192;-80
2021/08/09 10:33:50;;;;;;;2.80;1.33;;;21.20;99.90;;;;;;5014465;28;20592;-80
2021/08/09 10:36:22;;;;;;;2.00;1.20;;;21.10;99.90;;;;;;5003103;28;20195;-82
2021/08/09 10:39:00;;;;;;;5.03;1.40;;;21.00;99.90;;;;;;5000626;28;20636;-81
2021/08/09 10:41:36;;;;;;;3.93;1.10;;;20.70;99.90;;;;;;4999704;28;20188;-81
2021/08/09 10:44:04;;;;;;;3.70;1.10;;;20.70;99.90;;;;;;5002834;28;20180;-83
2021/08/09 10:46:41;;;;;;;4.57;1.33;;;20.60;99.90;;;;;;4997442;28;20188;-82
2021/08/09 10:49:07;;;;;;;3.93;1.57;;;20.50;99.90;;;;;;4982287;28;20255;-83
2021/08/09 10:51:51;;;;;;;4.53;1.23;;;20.50;99.90;;;;;;4999763;28;20208;-80
2021/08/09 10:54:27;;;;;;;2.63;1.20;;;20.50;99.90;;;;;;5015445;28;20194;-82
2021/08/09 10:56:54;;;;;;;3.20;1.23;;;20.50;99.90;;;;;;4996555;28;20185;-82
2021/08/09 10:59:44;;;;;;;3.13;1.20;;;20.50;99.90;;;;;;4981353;28;20185;-82
2021/08/09 11:02:21;;;;;;;2.63;1.20;;;20.50;99.90;;;;;;4996619;28;20204;-82
2021/08/09 11:05:13;;;;;;;3.17;1.17;;;20.50;99.90;;;;;;4996132;28;20293;-81
2021/08/09 11:07:38;;;;;;;4.03;1.40;;;20.40;99.90;;;;;;4976736;28;20719;-82
2021/08/09 11:10:05;;;;;;;3.90;1.40;;;20.40;99.90;;;;;;4983576;28;20188;-80
2021/08/09 11:12:30;;;;;;;4.00;1.43;;;20.60;99.90;;;;;;5000538;28;20187;-80
2021/08/09 11:15:10;;;;;;;3.50;1.20;;;20.60;99.90;;;;;;4988157;28;20188;-80
2021/08/09 11:17:39;;;;;;;4.10;1.27;;;20.70;99.90;;;;;;5000311;28;20172;-81
2021/08/09 11:20:25;;;;;;;6.43;1.53;;;20.70;99.90;;;;;;5014930;28;20188;-82
2021/08/09 11:23:01;;;;;;;2.93;1.07;;;20.80;99.90;;;;;;5010275;28;20176;-80
2021/08/09 11:25:32;;;;;;;3.43;1.30;;;20.90;99.90;;;;;;4989107;28;20664;-80
2021/08/09 11:28:02;;;;;;;5.33;2.37;;;20.90;99.90;;;;;;4990454;28;20246;-77
2021/08/09 11:30:48;;;;;;;4.37;2.40;;;21.00;99.90;;;;;;4993690;28;20204;-77
2021/08/09 11:33:26;;;;;;;4.23;2.40;;;21.20;99.90;;;;;;4995775;28;20169;-80
2021/08/09 11:36:02;;;;;;;4.87;1.50;;;21.30;99.90;;;;;;4995178;28;20176;-77
2021/08/09 11:38:29;;;;;;;3.43;1.40;;;21.40;99.90;;;;;;4993220;28;20190;-77
2021/08/09 11:41:00;;;;;;;5.57;1.70;;;21.30;99.90;;;;;;4992732;28;20702;-77
2021/08/09 11:43:27;;;;;;;3.93;1.53;;;21.30;99.90;;;;;;4993532;28;20185;-77
2021/08/09 11:45:54;;;;;;;3.43;1.30;;;21.20;99.90;;;;;;4992946;28;20588;-78
2021/08/09 11:48:29;;;;;;;2.93;1.30;;;21.10;99.90;;;;;;4992823;28;20187;-77
2021/08/09 11:50:57;;;;;;;6.07;1.70;;;21.10;99.90;;;;;;4993319;28;20204;-78
2021/08/09 11:53:23;;;;;;;5.27;2.23;;;21.10;99.90;;;;;;4998378;28;20172;-80
2021/08/09 11:55:48;;;;;;;4.57;2.07;;;21.10;99.90;;;;;;4995144;28;20215;-76
2021/08/09 11:58:30;;;;;;;4.23;1.30;;;21.10;99.90;;;;;;4999625;28;20543;-75
2021/08/09 12:00:56;;;;;;;3.53;1.30;;;21.00;99.90;;;;;;4993664;28;20204;-75
2021/08/09 12:03:23;;;;;;;4.47;2.40;;;20.90;99.90;;;;;;4991043;28;20633;-76
2021/08/09 12:05:48;;;;;;;5.23;2.60;;;20.90;99.90;;;;;;5004046;28;20204;-76
2021/08/09 12:08:14;;;;;;;5.10;2.20;;;20.90;99.90;;;;;;4995872;28;20279;-76
2021/08/09 12:10:40;;;;;;;3.67;1.90;;;20.90;99.90;;;;;;4994703;28;20212;-76
2021/08/09 12:13:26;;;;;;;3.87;1.77;;;21.10;99.90;;;;;;4996708;28;20274;-76
2021/08/09 12:16:13;;;;;;;5.27;2.77;;;21.20;99.90;;;;;;5012506;28;20176;-76
2021/08/09 12:22:34;;;;;;;6.53;1.33;;;21.70;99.90;;;;;;5012787;28;20637;-76
2021/08/09 12:25:11;;;;;;;4.20;1.20;;;21.90;99.90;;;;;;5001819;28;20207;-76
2021/08/09 12:27:43;;;;;;;5.00;1.47;;;21.90;99.90;;;;;;5002145;28;20192;-76
2021/08/09 12:30:46;;;;;;;4.80;1.20;;;22.00;99.90;;;;;;4991728;28;20197;-76
2021/08/09 12:33:11;;;;;;;3.73;1.40;;;22.20;99.90;;;;;;4980326;28;20247;-76
2021/08/09 12:35:40;;;;;;;2.67;1.30;;;22.40;99.90;;;;;;4978968;28;20197;-79
2021/08/09 12:38:07;;;;;;;4.47;1.20;;;22.60;99.90;;;;;;4979340;28;20661;-80
2021/08/09 12:40:46;;;;;;;3.43;1.30;;;22.70;99.90;;;;;;4979416;28;20216;-80
2021/08/09 12:43:13;;;;;;;4.13;1.53;;;22.70;99.90;;;;;;4980340;28;20184;-80
2021/08/09 12:45:40;;;;;;;3.70;1.30;;;22.70;99.90;;;;;;4980558;28;20231;-79
2021/08/09 12:48:07;;;;;;;3.40;1.20;;;22.70;99.90;;;;;;4981186;28;20193;-78
2021/08/09 12:50:33;;;;;;;4.60;1.20;;;22.60;99.90;;;;;;4980802;28;20204;-80
2021/08/09 12:52:58;;;;;;;3.93;1.37;;;22.70;99.90;;;;;;4980880;28;20177;-79
2021/08/09 12:55:24;;;;;;;4.47;1.37;;;22.80;99.90;;;;;;4981129;28;20275;-79
2021/08/09 12:57:53;;;;;;;3.27;1.20;;;22.70;99.90;;;;;;4983380;28;20652;-78